createdAt,value
2023-01-13T00:01:15.913Z,18.23
2023-01-13T00:03:43.618Z,17.00
2023-01-13T00:06:15.248Z,17.67
2023-01-13T00:08:41.964Z,18.45
2023-01-13T00:11:09.817Z,17.17
2023-01-13T00:13:38.186Z,16.93
2023-01-13T00:16:07.081Z,25.67
2023-01-13T00:18:34.466Z,20.10
2023-01-13T00:21:11.688Z,19.93
2023-01-13T00:23:39.729Z,15.27
2023-01-13T00:26:12.557Z,15.60
2023-01-13T00:28:39.237Z,15.80
2023-01-13T00:31:27.622Z,15.57
2023-01-13T00:33:57.085Z,14.50
2023-01-13T00:36:23.727Z,15.73
2023-01-13T00:38:50.508Z,14.40
2023-01-13T00:41:19.976Z,16.53
2023-01-13T00:43:46.930Z,15.73
2023-01-13T00:46:16.250Z,14.23
2023-01-13T00:48:43.189Z,15.00
2023-01-13T00:51:10.046Z,14.77
2023-01-13T00:53:39.905Z,15.33
2023-01-13T00:56:18.265Z,15.53
2023-01-13T00:58:48.656Z,15.33
2023-01-13T01:01:21.684Z,14.97
2023-01-13T01:03:49.296Z,14.80
2023-01-13T01:06:19.189Z,13.83
2023-01-13T01:08:45.920Z,56.60
2023-01-13T01:11:18.192Z,12.77
2023-01-13T01:13:45.531Z,25.90
2023-01-13T01:16:15.220Z,12.10
2023-01-13T01:18:44.657Z,11.43
2023-01-13T01:21:12.150Z,11.07
2023-01-13T01:23:40.488Z,10.30
2023-01-13T01:26:11.971Z,12.70
2023-01-13T01:28:38.916Z,12.23
2023-01-13T01:31:20.261Z,12.93
2023-01-13T01:33:47.809Z,39.10
2023-01-13T01:36:16.742Z,33.47
2023-01-13T01:38:43.780Z,22.47
2023-01-13T01:41:19.906Z,11.27
2023-01-13T01:44:07.024Z,10.63
2023-01-13T01:46:35.435Z,16.40
2023-01-13T01:49:23.672Z,12.73
2023-01-13T01:51:55.602Z,12.17
2023-01-13T01:54:32.426Z,12.00
2023-01-13T01:56:59.352Z,12.17
2023-01-13T01:59:29.477Z,16.27
2023-01-13T02:01:56.481Z,13.40
2023-01-13T02:04:30.446Z,12.77
2023-01-13T02:06:58.093Z,10.80
2023-01-13T02:09:27.060Z,11.47
2023-01-13T02:12:23.102Z,11.27
2023-01-13T02:14:49.878Z,12.00
2023-01-13T02:17:19.499Z,10.93
2023-01-13T02:20:07.299Z,11.00
2023-01-13T02:23:03.923Z,9.10
2023-01-13T02:26:11.918Z,10.47
2023-01-13T02:29:12.074Z,10.67
2023-01-13T02:31:42.606Z,11.93
2023-01-13T02:34:40.437Z,11.40
2023-01-13T02:37:14.746Z,8.97
2023-01-13T02:39:52.948Z,8.80
2023-01-13T02:43:08.149Z,9.00
2023-01-13T02:45:48.858Z,9.60
2023-01-13T02:48:18.014Z,11.40
2023-01-13T02:50:50.101Z,9.93
2023-01-13T02:53:23.124Z,11.67
2023-01-13T02:55:53.495Z,9.37
2023-01-13T02:58:25.068Z,9.13
2023-01-13T03:00:51.863Z,8.50
2023-01-13T03:03:19.276Z,9.73
2023-01-13T03:05:49.704Z,8.10
2023-01-13T03:08:39.706Z,6.70
2023-01-13T03:11:09.977Z,7.17
2023-01-13T03:13:42.945Z,8.53
2023-01-13T03:16:09.814Z,8.73
2023-01-13T03:18:48.764Z,7.70
2023-01-13T03:21:35.942Z,8.47
2023-01-13T03:24:12.285Z,9.53
2023-01-13T03:26:57.735Z,38.20
2023-01-13T03:29:49.498Z,20.00
2023-01-13T03:32:28.221Z,16.30
2023-01-13T03:35:09.887Z,11.53
2023-01-13T03:37:41.218Z,9.83
2023-01-13T03:40:19.106Z,14.13
2023-01-13T03:43:09.590Z,13.00
2023-01-13T03:45:39.947Z,13.03
2023-01-13T03:48:15.037Z,12.13
2023-01-13T03:50:48.150Z,12.13
2023-01-13T03:53:22.952Z,13.30
2023-01-13T03:58:26.504Z,11.70
2023-01-13T04:01:00.199Z,12.65
2023-01-13T04:03:34.454Z,20.97
2023-01-13T04:06:17.167Z,14.77
2023-01-13T04:08:56.462Z,32.67
2023-01-13T04:11:38.844Z,17.90
2023-01-13T04:14:09.423Z,28.97
2023-01-13T04:16:37.743Z,14.00
2023-01-13T04:19:04.860Z,21.70
2023-01-13T04:21:31.703Z,16.30
2023-01-13T04:23:58.334Z,17.70
2023-01-13T04:26:25.081Z,23.20
2023-01-13T04:28:54.788Z,36.93
2023-01-13T04:31:21.854Z,29.60
2023-01-13T04:33:48.742Z,23.93
2023-01-13T04:36:15.877Z,26.10
2023-01-13T04:38:42.766Z,18.37
2023-01-13T04:41:09.439Z,15.10
2023-01-13T04:43:36.141Z,15.57
2023-01-13T04:46:02.968Z,22.43
2023-01-13T04:48:29.643Z,20.17
2023-01-13T04:50:56.316Z,15.17
2023-01-13T04:53:22.922Z,10.80
2023-01-13T04:55:49.877Z,14.07
2023-01-13T04:58:16.785Z,18.77
2023-01-13T05:00:44.004Z,22.10
2023-01-13T05:03:10.690Z,27.87
2023-01-13T05:05:38.224Z,27.57
2023-01-13T05:08:05.653Z,26.23
2023-01-13T05:10:32.495Z,25.53
2023-01-13T05:13:17.656Z,74.73
2023-01-13T05:18:33.102Z,42.37
2023-01-13T05:20:59.741Z,54.33
2023-01-13T05:23:45.044Z,71.13
2023-01-13T05:28:38.494Z,52.80
2023-01-13T05:31:05.308Z,36.67
2023-01-13T05:33:34.984Z,25.30
2023-01-13T05:36:03.482Z,31.30
2023-01-13T05:38:30.180Z,29.17
2023-01-13T05:41:18.093Z,29.67
2023-01-13T05:43:44.799Z,28.80
2023-01-13T05:46:12.645Z,17.23
2023-01-13T05:48:42.167Z,13.10
2023-01-13T05:51:10.995Z,13.40
2023-01-13T05:53:37.921Z,20.13
2023-01-13T05:56:06.716Z,24.33
2023-01-13T05:58:33.769Z,27.17
2023-01-13T06:01:02.593Z,26.13
2023-01-13T06:03:29.648Z,42.97
2023-01-13T06:05:59.446Z,39.33
2023-01-13T06:08:26.745Z,31.77
2023-01-13T06:10:53.776Z,42.10
2023-01-13T06:13:20.448Z,37.20
2023-01-13T06:15:47.168Z,29.83
2023-01-13T06:18:13.958Z,30.37
2023-01-13T06:20:40.654Z,37.80
2023-01-13T06:23:10.843Z,37.23
2023-01-13T06:25:56.726Z,37.80
2023-01-13T06:28:23.435Z,35.63
2023-01-13T06:30:55.900Z,33.10
2023-01-13T06:33:29.474Z,30.30
2023-01-13T06:36:00.545Z,28.53
2023-01-13T06:38:30.266Z,33.30
2023-01-13T06:40:57.092Z,30.50
2023-01-13T06:43:23.812Z,27.23
2023-01-13T06:45:56.494Z,23.43
2023-01-13T06:48:28.465Z,31.00
2023-01-13T06:50:55.471Z,31.87
2023-01-13T06:53:22.126Z,28.43
2023-01-13T06:55:50.324Z,26.03
2023-01-13T06:58:17.180Z,27.93
2023-01-13T07:00:43.834Z,30.10
2023-01-13T07:03:15.575Z,39.10
2023-01-13T07:05:44.199Z,32.30
2023-01-13T07:08:11.358Z,32.90
2023-01-13T07:10:38.318Z,22.80
2023-01-13T07:13:24.737Z,23.67
2023-01-13T07:16:00.076Z,28.13
2023-01-13T07:18:28.569Z,23.30
2023-01-13T07:20:57.300Z,25.27
2023-01-13T07:23:25.388Z,31.87
2023-01-13T07:25:52.070Z,28.07
2023-01-13T07:28:18.718Z,31.00
2023-01-13T07:30:45.522Z,29.73
2023-01-13T07:33:12.174Z,38.23
2023-01-13T07:35:39.031Z,33.27
2023-01-13T07:38:05.840Z,33.77
2023-01-13T07:40:32.650Z,34.50
2023-01-13T07:43:17.999Z,32.03
2023-01-13T07:45:44.933Z,36.57
2023-01-13T07:48:11.718Z,35.43
2023-01-13T07:50:38.597Z,38.47
2023-01-13T07:53:05.536Z,43.07
2023-01-13T07:55:32.295Z,39.47
2023-01-13T07:57:58.951Z,36.37
2023-01-13T08:00:25.697Z,39.83
2023-01-13T08:02:52.498Z,35.20
2023-01-13T08:05:19.189Z,38.85
2023-01-13T08:07:45.843Z,46.90
2023-01-13T08:10:12.559Z,33.97
2023-01-13T08:12:57.898Z,33.13
2023-01-13T08:17:51.335Z,33.87
2023-01-13T08:20:18.502Z,28.65
2023-01-13T08:22:45.272Z,23.08
2023-01-13T08:25:12.055Z,26.15
2023-01-13T08:27:39.091Z,27.83
2023-01-13T08:30:06.441Z,26.25
2023-01-13T08:32:33.188Z,29.85
2023-01-13T08:34:59.947Z,32.85
2023-01-13T08:37:26.798Z,32.47
2023-01-13T08:39:53.621Z,34.17
2023-01-13T08:42:20.340Z,20.45
2023-01-13T08:44:47.420Z,22.55
2023-01-13T08:47:14.148Z,17.88
2023-01-13T08:49:40.791Z,16.50
2023-01-13T08:52:08.219Z,13.48
2023-01-13T08:54:34.975Z,11.32
2023-01-13T08:57:03.421Z,24.60
2023-01-13T08:59:30.368Z,10.68
2023-01-13T09:01:57.329Z,10.10
2023-01-13T09:04:29.977Z,12.43
2023-01-13T09:06:57.164Z,11.85
2023-01-13T09:09:25.469Z,10.85
2023-01-13T09:12:10.746Z,11.50
2023-01-13T09:14:38.476Z,8.10
2023-01-13T09:17:05.325Z,14.60
2023-01-13T09:19:32.108Z,11.25
2023-01-13T09:21:59.077Z,10.90
2023-01-13T09:24:26.715Z,10.73
2023-01-13T09:26:53.670Z,13.13
2023-01-13T09:29:20.850Z,12.68
2023-01-13T09:31:47.818Z,9.40
2023-01-13T09:34:39.088Z,11.60
2023-01-13T09:37:07.126Z,10.75
2023-01-13T09:39:35.967Z,13.30
2023-01-13T09:42:30.511Z,14.63
2023-01-13T09:45:20.899Z,14.07
2023-01-13T09:48:07.264Z,12.52
2023-01-13T09:50:58.766Z,14.85
2023-01-13T09:53:40.599Z,14.82
2023-01-13T09:56:10.791Z,7.68
2023-01-13T09:58:37.628Z,7.38
2023-01-13T10:01:28.445Z,5.63
2023-01-13T10:03:55.283Z,6.00
2023-01-13T10:06:38.974Z,7.70
2023-01-13T10:09:06.300Z,5.28
2023-01-13T10:11:58.261Z,6.63
2023-01-13T10:14:34.673Z,7.82
2023-01-13T10:17:34.268Z,7.45
2023-01-13T10:20:24.871Z,7.75
2023-01-13T10:23:14.728Z,5.25
2023-01-13T10:26:26.945Z,9.18
2023-01-13T10:28:57.698Z,14.02
2023-01-13T10:31:25.537Z,10.70
2023-01-13T10:34:06.234Z,14.23
2023-01-13T10:36:33.797Z,13.90
2023-01-13T10:39:10.275Z,10.55
2023-01-13T10:41:36.931Z,12.35
2023-01-13T10:44:09.498Z,22.15
2023-01-13T10:46:54.341Z,24.98
2023-01-13T10:49:34.300Z,18.23
2023-01-13T10:52:02.685Z,26.98
2023-01-13T10:54:30.303Z,20.90
2023-01-13T10:57:18.463Z,17.23
2023-01-13T10:59:45.251Z,18.65
2023-01-13T11:02:25.824Z,16.65
2023-01-13T11:04:53.487Z,17.25
2023-01-13T11:07:36.043Z,16.55
2023-01-13T11:10:15.315Z,14.90
2023-01-13T11:13:04.353Z,16.27
2023-01-13T11:15:58.125Z,6.25
2023-01-13T11:19:02.427Z,13.65
2023-01-13T11:21:35.873Z,8.68
2023-01-13T11:24:23.831Z,9.60
2023-01-13T11:26:52.941Z,7.68
2023-01-13T11:29:38.413Z,8.70
2023-01-13T11:32:17.651Z,6.57
2023-01-13T11:34:47.644Z,7.13
2023-01-13T11:37:26.215Z,8.63
2023-01-13T11:40:01.803Z,11.02
2023-01-13T11:42:51.166Z,6.80
2023-01-13T11:45:51.180Z,3.53
2023-01-13T11:48:21.716Z,8.30
2023-01-13T11:51:04.743Z,7.38
2023-01-13T11:53:50.449Z,7.55
2023-01-13T11:56:17.225Z,9.35
2023-01-13T11:59:08.851Z,11.70
2023-01-13T12:02:00.628Z,8.52
2023-01-13T12:04:49.418Z,9.73
2023-01-13T12:07:54.318Z,9.15
2023-01-13T12:10:33.788Z,7.07
2023-01-13T12:13:22.129Z,9.32
2023-01-13T12:15:51.545Z,10.43
2023-01-13T12:18:35.986Z,9.13
2023-01-13T12:21:09.473Z,7.65
2023-01-13T12:23:47.417Z,10.13
2023-01-13T12:26:16.744Z,15.45
2023-01-13T12:29:07.574Z,13.35
2023-01-13T12:31:38.579Z,6.70
2023-01-13T12:34:43.221Z,8.25
2023-01-13T12:37:48.658Z,7.28
2023-01-13T12:40:38.792Z,18.48
2023-01-13T12:43:36.196Z,16.70
2023-01-13T12:46:21.610Z,19.38
2023-01-13T12:48:53.075Z,22.60
2023-01-13T12:51:27.236Z,14.05
2023-01-13T12:53:57.842Z,9.57
2023-01-13T12:56:39.801Z,9.20
2023-01-13T12:59:19.183Z,8.60
2023-01-13T13:01:48.684Z,6.65
2023-01-13T13:04:43.000Z,9.77
2023-01-13T13:07:19.935Z,17.38
2023-01-13T13:09:53.204Z,13.52
2023-01-13T13:13:11.220Z,11.18
2023-01-13T13:15:38.818Z,7.75
2023-01-13T13:18:06.359Z,7.55
2023-01-13T13:20:55.097Z,7.90
2023-01-13T13:23:40.255Z,10.10
2023-01-13T13:26:20.240Z,15.23
2023-01-13T13:29:00.973Z,13.13
2023-01-13T13:31:38.815Z,11.88
2023-01-13T13:34:11.027Z,12.30
2023-01-13T13:37:15.605Z,13.45
2023-01-13T13:40:02.577Z,21.45
2023-01-13T13:42:56.829Z,18.85
2023-01-13T13:45:45.043Z,19.88
2023-01-13T13:48:27.174Z,21.10
2023-01-13T13:51:01.960Z,18.73
2023-01-13T13:53:33.425Z,24.17
2023-01-13T13:56:02.383Z,22.73
2023-01-13T13:58:31.433Z,18.30
2023-01-13T14:00:59.878Z,18.67
2023-01-13T14:03:32.025Z,18.08
2023-01-13T14:06:01.335Z,21.55
2023-01-13T14:08:31.219Z,35.88
2023-01-13T14:10:57.963Z,26.02
2023-01-13T14:13:30.635Z,21.42
2023-01-13T14:16:00.167Z,20.45
2023-01-13T14:18:28.836Z,17.02
2023-01-13T14:21:00.738Z,18.20
2023-01-13T14:23:31.246Z,33.20
2023-01-13T14:26:09.201Z,28.75
2023-01-13T14:28:38.218Z,29.83
2023-01-13T14:31:08.207Z,44.20
2023-01-13T14:33:49.977Z,61.58
2023-01-13T14:36:22.560Z,59.53
2023-01-13T14:39:04.684Z,69.10
2023-01-13T14:41:39.354Z,58.75
2023-01-13T14:44:29.572Z,60.72
2023-01-13T14:46:58.879Z,36.00
2023-01-13T14:49:36.060Z,21.42
2023-01-13T14:52:24.105Z,39.58
2023-01-13T14:54:53.360Z,37.35
2023-01-13T14:57:32.162Z,40.90
2023-01-13T15:00:04.883Z,33.05
2023-01-13T15:02:33.051Z,33.38
2023-01-13T15:05:24.791Z,40.20
2023-01-13T15:08:00.413Z,51.83
2023-01-13T15:10:30.813Z,46.25
2023-01-13T15:13:01.115Z,47.88
2023-01-13T15:15:33.085Z,57.22
2023-01-13T15:18:01.530Z,46.38
2023-01-13T15:23:01.507Z,43.97
2023-01-13T15:25:40.549Z,51.17
2023-01-13T15:28:14.685Z,50.75
2023-01-13T15:30:41.427Z,53.53
2023-01-13T15:33:11.778Z,48.58
2023-01-13T15:35:41.990Z,58.35
2023-01-13T15:38:13.881Z,60.65
2023-01-13T15:40:41.511Z,58.00
2023-01-13T15:43:32.951Z,79.22
2023-01-13T15:46:20.166Z,75.25
2023-01-13T15:48:53.157Z,68.10
2023-01-13T15:51:21.697Z,56.65
2023-01-13T15:53:48.463Z,60.55
2023-01-13T15:56:24.683Z,48.83
2023-01-13T15:58:51.526Z,50.25
2023-01-13T16:01:18.466Z,39.78
2023-01-13T16:03:45.725Z,46.47
2023-01-13T16:06:19.471Z,45.08
2023-01-13T16:08:46.263Z,50.40
2023-01-13T16:11:13.634Z,42.72
2023-01-13T16:13:40.773Z,44.80
2023-01-13T16:16:25.307Z,55.80
2023-01-13T16:18:53.066Z,62.05
2023-01-13T16:21:21.050Z,78.78
2023-01-13T16:23:49.271Z,138.48
2023-01-13T16:26:29.357Z,79.78
2023-01-13T16:28:58.109Z,67.55
2023-01-13T16:31:32.195Z,59.08
2023-01-13T16:34:01.370Z,55.47
2023-01-13T16:36:30.250Z,51.15
2023-01-13T16:38:57.323Z,43.20
2023-01-13T16:41:26.928Z,37.67
2023-01-13T16:43:54.093Z,33.83
2023-01-13T16:46:23.836Z,45.42
2023-01-13T16:48:53.091Z,57.38
2023-01-13T16:51:20.964Z,55.70
2023-01-13T16:53:48.250Z,63.25
2023-01-13T16:56:23.351Z,75.45
2023-01-13T16:58:52.042Z,76.65
2023-01-13T17:01:21.645Z,75.00
2023-01-13T17:03:51.858Z,61.88
2023-01-13T17:06:25.583Z,57.00
2023-01-13T17:08:53.419Z,54.40
2023-01-13T17:11:21.023Z,79.47
2023-01-13T17:13:47.916Z,55.90
2023-01-13T17:16:20.778Z,48.17
2023-01-13T17:18:48.406Z,39.42
2023-01-13T17:21:15.799Z,48.67
2023-01-13T17:23:44.098Z,48.10
2023-01-13T17:26:24.535Z,52.60
2023-01-13T17:28:51.502Z,40.78
2023-01-13T17:31:18.231Z,39.35
2023-01-13T17:33:45.020Z,50.83
2023-01-13T17:36:11.720Z,57.33
2023-01-13T17:38:38.379Z,98.68
2023-01-13T17:41:05.616Z,91.07
2023-01-13T17:43:32.596Z,88.00
2023-01-13T17:45:59.444Z,87.10
2023-01-13T17:48:26.799Z,64.10
2023-01-13T17:50:53.750Z,47.28
2023-01-13T17:53:21.007Z,46.22
2023-01-13T17:55:55.165Z,65.10
2023-01-13T17:58:23.416Z,58.78
2023-01-13T18:00:50.403Z,48.83
2023-01-13T18:03:17.896Z,49.60
2023-01-13T18:05:45.409Z,55.22
2023-01-13T18:08:12.136Z,61.78
2023-01-13T18:10:39.037Z,77.40
2023-01-13T18:13:06.703Z,54.50
2023-01-13T18:15:33.427Z,41.88
2023-01-13T18:18:00.224Z,47.80
2023-01-13T18:20:45.647Z,54.40
2023-01-13T18:23:36.334Z,41.10
2023-01-13T18:26:35.992Z,49.57
2023-01-13T18:29:02.733Z,54.47
2023-01-13T18:31:29.610Z,62.60
2023-01-13T18:33:56.617Z,50.27
2023-01-13T18:36:23.480Z,50.77
2023-01-13T18:38:50.825Z,44.27
2023-01-13T18:41:36.869Z,47.43
2023-01-13T18:44:04.205Z,46.63
2023-01-13T18:46:31.005Z,46.83
2023-01-13T18:48:58.118Z,47.90
2023-01-13T18:51:24.860Z,57.17
2023-01-13T18:53:51.778Z,69.03
2023-01-13T18:56:18.999Z,59.73
2023-01-13T18:58:52.664Z,65.00
2023-01-13T19:01:25.706Z,61.58
2023-01-13T19:03:57.307Z,60.83
2023-01-13T19:06:27.752Z,63.08
2023-01-13T19:08:55.711Z,56.90
2023-01-13T19:11:24.204Z,61.30
2023-01-13T19:13:52.537Z,41.87
2023-01-13T19:16:23.921Z,38.27
2023-01-13T19:18:50.650Z,28.60
2023-01-13T19:21:17.439Z,26.50
2023-01-13T19:23:44.220Z,27.63
2023-01-13T19:26:12.362Z,32.63
2023-01-13T19:28:40.824Z,19.63
2023-01-13T19:31:09.681Z,18.87
2023-01-13T19:33:39.577Z,19.30
2023-01-13T19:36:07.700Z,20.33
2023-01-13T19:38:37.012Z,19.73
2023-01-13T19:41:11.525Z,17.23
2023-01-13T19:43:56.758Z,20.13
2023-01-13T19:46:26.104Z,28.60
2023-01-13T19:48:52.859Z,25.43
2023-01-13T19:51:19.804Z,23.57
2023-01-13T19:53:46.985Z,26.10
2023-01-13T19:56:15.382Z,21.53
2023-01-13T19:58:42.449Z,21.97
2023-01-13T20:01:10.343Z,20.30
2023-01-13T20:03:38.462Z,23.67
2023-01-13T20:06:10.420Z,26.27
2023-01-13T20:08:37.507Z,29.43
2023-01-13T20:11:22.768Z,41.87
2023-01-13T20:16:16.692Z,33.90
2023-01-13T20:18:43.738Z,40.90
2023-01-13T20:21:10.754Z,42.77
2023-01-13T20:23:37.597Z,45.80
2023-01-13T20:26:07.668Z,43.27
2023-01-13T20:28:37.434Z,49.00
2023-01-13T20:31:12.073Z,43.50
2023-01-13T20:33:39.229Z,31.98
2023-01-13T20:36:07.551Z,23.97
2023-01-13T20:38:37.861Z,23.60
2023-01-13T20:41:32.688Z,31.43
2023-01-13T20:43:59.338Z,29.48
2023-01-13T20:46:26.218Z,19.13
2023-01-13T20:48:52.938Z,19.95
2023-01-13T20:51:19.661Z,18.03
2023-01-13T20:53:46.348Z,21.17
2023-01-13T20:56:14.515Z,19.57
2023-01-13T20:58:41.373Z,24.20
2023-01-13T21:01:08.285Z,30.60
2023-01-13T21:03:35.108Z,31.17
2023-01-13T21:06:01.840Z,26.57
2023-01-13T21:08:28.704Z,27.10
2023-01-13T21:11:10.532Z,27.97
2023-01-13T21:13:55.847Z,30.80
2023-01-13T21:19:07.132Z,32.27
2023-01-13T21:21:34.237Z,33.88
2023-01-13T21:24:00.925Z,37.47
2023-01-13T21:26:27.590Z,33.87
2023-01-13T21:28:58.269Z,32.37
2023-01-13T21:31:27.055Z,35.87
2023-01-13T21:33:55.298Z,36.83
2023-01-13T21:36:22.702Z,33.90
2023-01-13T21:38:58.048Z,29.67
2023-01-13T21:41:58.010Z,27.10
2023-01-13T21:44:43.779Z,23.80
2023-01-13T21:47:37.993Z,24.43
2023-01-13T21:50:09.536Z,37.23
2023-01-13T21:52:36.851Z,30.15
2023-01-13T21:55:22.885Z,26.97
2023-01-13T21:57:50.761Z,20.00
2023-01-13T22:00:19.493Z,19.87
2023-01-13T22:02:47.367Z,16.92
2023-01-13T22:05:16.354Z,17.65
2023-01-13T22:07:43.346Z,17.17
2023-01-13T22:10:19.300Z,15.43
2023-01-13T22:12:47.726Z,18.23
2023-01-13T22:15:16.516Z,18.43
2023-01-13T22:17:45.530Z,21.10
2023-01-13T22:20:13.110Z,22.30
2023-01-13T22:22:40.370Z,24.10
2023-01-13T22:25:11.100Z,25.83
2023-01-13T22:27:43.454Z,24.83
2023-01-13T22:30:18.400Z,26.17
2023-01-13T22:32:46.506Z,26.90
2023-01-13T22:35:15.453Z,26.60
2023-01-13T22:37:42.663Z,26.30
2023-01-13T22:40:11.686Z,24.93
2023-01-13T22:42:42.768Z,24.30
2023-01-13T22:45:13.790Z,24.30
2023-01-13T22:47:40.620Z,23.67
2023-01-13T22:50:08.259Z,21.43
2023-01-13T22:52:35.547Z,25.60
2023-01-13T22:55:02.264Z,23.57
2023-01-13T22:57:36.379Z,26.70
2023-01-13T23:00:10.576Z,25.87
2023-01-13T23:02:38.369Z,23.27
2023-01-13T23:05:05.468Z,23.90
2023-01-13T23:07:32.209Z,22.30
2023-01-13T23:09:58.850Z,25.33
2023-01-13T23:12:25.747Z,21.63
2023-01-13T23:14:52.542Z,20.20
2023-01-13T23:17:19.211Z,18.70
2023-01-13T23:19:46.101Z,16.93
2023-01-13T23:22:13.610Z,17.63
2023-01-13T23:24:40.357Z,18.00
2023-01-13T23:27:07.190Z,13.90
2023-01-13T23:29:33.925Z,14.77
2023-01-13T23:32:00.598Z,14.67
2023-01-13T23:34:27.417Z,14.93
2023-01-13T23:36:54.080Z,20.37
2023-01-13T23:39:20.749Z,17.23
2023-01-13T23:41:47.535Z,16.80
2023-01-13T23:44:14.152Z,13.43
2023-01-13T23:46:40.912Z,15.57
2023-01-13T23:49:07.634Z,15.73
2023-01-13T23:51:34.499Z,15.20
2023-01-13T23:54:02.522Z,19.17
2023-01-13T23:56:31.412Z,18.20
2023-01-13T23:58:58.792Z,17.60
